createdAt,value
2019-03-16T00:01:08.291Z,0.30
2019-03-16T00:03:36.337Z,0.75
2019-03-16T00:06:04.455Z,0.20
2019-03-16T00:08:32.576Z,0.25
2019-03-16T00:11:00.570Z,1.27
2019-03-16T00:13:28.615Z,0.42
2019-03-16T00:15:56.628Z,0.25
2019-03-16T00:18:24.663Z,0.42
2019-03-16T00:20:52.767Z,0.62
2019-03-16T00:23:20.823Z,0.62
2019-03-16T00:25:48.834Z,0.30
2019-03-16T00:28:16.895Z,0.30
2019-03-16T00:30:44.960Z,1.50
2019-03-16T00:33:12.996Z,0.20
2019-03-16T00:35:41.013Z,0.10
2019-03-16T00:38:09.043Z,0.20
2019-03-16T00:40:37.067Z,0.70
2019-03-16T00:43:05.103Z,0.13
2019-03-16T00:45:33.127Z,0.23
2019-03-16T00:48:01.148Z,0.40
2019-03-16T00:50:29.232Z,0.45
2019-03-16T00:52:57.248Z,0.30
2019-03-16T00:55:25.271Z,0.17
2019-03-16T00:57:53.292Z,0.20
2019-03-16T01:00:21.337Z,0.20
2019-03-16T01:02:49.348Z,0.20
2019-03-16T01:05:17.455Z,0.30
2019-03-16T01:07:45.463Z,0.20
2019-03-16T01:10:13.496Z,0.20
2019-03-16T01:12:41.591Z,0.40
2019-03-16T01:15:10.295Z,0.10
2019-03-16T01:17:38.307Z,0.17
2019-03-16T01:20:08.015Z,1.20
2019-03-16T01:22:36.016Z,0.20
2019-03-16T01:25:05.027Z,0.20
2019-03-16T01:27:33.059Z,0.30
2019-03-16T01:30:01.076Z,0.20
2019-03-16T01:32:40.077Z,1.47
2019-03-16T01:34:58.877Z,0.30
2019-03-16T01:37:26.912Z,0.20
2019-03-16T01:39:54.928Z,1.17
2019-03-16T01:42:22.960Z,1.32
2019-03-16T01:44:50.966Z,0.30
2019-03-16T01:47:19.022Z,0.10
2019-03-16T01:49:47.126Z,0.37
2019-03-16T01:52:15.264Z,0.20
2019-03-16T01:54:43.339Z,0.20
2019-03-16T01:57:11.377Z,0.37
2019-03-16T01:59:39.498Z,0.95
2019-03-16T02:02:07.609Z,0.68
2019-03-16T02:04:35.632Z,0.33
2019-03-16T02:07:03.671Z,0.20
2019-03-16T02:09:31.676Z,0.28
2019-03-16T02:12:00.607Z,0.57
2019-03-16T02:14:28.786Z,0.20
2019-03-16T02:16:56.824Z,0.13
2019-03-16T02:19:24.835Z,0.15
2019-03-16T02:21:52.957Z,0.35
2019-03-16T02:24:21.002Z,0.10
2019-03-16T02:26:49.067Z,0.20
2019-03-16T02:29:17.100Z,0.20
2019-03-16T02:31:45.108Z,0.10
2019-03-16T02:34:13.156Z,0.30
2019-03-16T02:36:42.791Z,0.62
2019-03-16T02:39:10.829Z,1.30
2019-03-16T02:41:38.914Z,0.20
2019-03-16T02:44:11.058Z,0.30
2019-03-16T02:46:36.759Z,0.10
2019-03-16T02:49:04.799Z,0.15
2019-03-16T02:51:32.812Z,0.13
2019-03-16T02:54:00.841Z,0.10
2019-03-16T02:56:28.896Z,0.10
2019-03-16T02:58:56.939Z,0.20
2019-03-16T03:01:25.017Z,0.20
2019-03-16T03:03:53.045Z,0.10
2019-03-16T03:06:21.071Z,0.10
2019-03-16T03:08:49.098Z,0.10
2019-03-16T03:11:17.104Z,0.20
2019-03-16T03:13:45.207Z,0.33
2019-03-16T03:16:13.284Z,0.53
2019-03-16T03:18:41.305Z,0.10
2019-03-16T03:21:09.327Z,0.10
2019-03-16T03:23:37.454Z,0.10
2019-03-16T03:26:05.490Z,1.25
2019-03-16T03:28:33.585Z,0.33
2019-03-16T03:31:01.624Z,0.85
2019-03-16T03:33:56.258Z,0.20
2019-03-16T03:35:59.481Z,0.23
2019-03-16T03:38:27.523Z,0.13
2019-03-16T03:40:55.547Z,0.20
2019-03-16T03:43:23.580Z,0.10
2019-03-16T03:45:51.617Z,0.70
2019-03-16T03:48:19.834Z,0.40
2019-03-16T03:50:47.907Z,0.15
2019-03-16T03:53:15.911Z,0.20
2019-03-16T03:55:44.011Z,0.20
2019-03-16T03:58:12.036Z,0.08
2019-03-16T04:00:40.071Z,0.13
2019-03-16T04:03:08.088Z,0.10
2019-03-16T04:05:36.104Z,0.10
2019-03-16T04:08:04.135Z,0.10
2019-03-16T04:10:32.148Z,0.70
2019-03-16T04:13:00.210Z,0.40
2019-03-16T04:15:28.212Z,0.47
2019-03-16T04:17:56.332Z,0.62
2019-03-16T04:20:24.347Z,0.10
2019-03-16T04:25:26.349Z,0.20
2019-03-16T04:27:54.456Z,0.10
2019-03-16T04:30:22.482Z,1.07
2019-03-16T04:32:50.511Z,0.17
2019-03-16T04:35:18.521Z,0.10
2019-03-16T04:37:46.541Z,0.20
2019-03-16T04:40:14.595Z,0.23
2019-03-16T04:42:42.643Z,0.60
2019-03-16T04:45:11.029Z,0.15
2019-03-16T04:47:39.062Z,0.23
2019-03-16T04:50:08.717Z,0.10
2019-03-16T04:52:36.790Z,0.35
2019-03-16T04:55:05.096Z,0.20
2019-03-16T04:57:33.105Z,0.78
2019-03-16T05:00:01.209Z,0.10
2019-03-16T05:02:29.263Z,0.05
2019-03-16T05:04:57.291Z,0.10
2019-03-16T05:07:25.407Z,1.52
2019-03-16T05:09:53.447Z,0.20
2019-03-16T05:12:21.451Z,0.10
2019-03-16T05:14:49.494Z,0.28
2019-03-16T05:17:17.577Z,0.23
2019-03-16T05:19:45.606Z,0.10
2019-03-16T05:22:13.632Z,0.30
2019-03-16T05:24:41.751Z,0.10
2019-03-16T05:27:09.772Z,0.20
2019-03-16T05:29:37.841Z,0.25
2019-03-16T05:32:05.898Z,0.10
2019-03-16T05:34:33.918Z,0.20
2019-03-16T05:37:01.937Z,0.20
2019-03-16T05:39:30.339Z,0.13
2019-03-16T05:41:58.346Z,0.20
2019-03-16T05:44:26.470Z,0.20
2019-03-16T05:46:54.584Z,0.13
2019-03-16T05:49:25.397Z,0.10
2019-03-16T05:51:53.476Z,0.20
2019-03-16T05:54:21.496Z,0.20
2019-03-16T05:56:49.530Z,0.20
2019-03-16T05:59:17.551Z,0.30
2019-03-16T06:01:45.630Z,0.30
2019-03-16T06:04:13.652Z,0.23
2019-03-16T06:06:41.719Z,0.30
2019-03-16T06:09:09.830Z,0.10
2019-03-16T06:11:37.915Z,0.20
2019-03-16T06:14:05.925Z,0.10
2019-03-16T06:16:33.947Z,1.20
2019-03-16T06:19:02.006Z,0.75
2019-03-16T06:21:30.099Z,0.20
2019-03-16T06:23:58.115Z,0.10
2019-03-16T06:26:26.116Z,0.20
2019-03-16T06:28:54.139Z,0.10
2019-03-16T06:31:22.168Z,0.10
2019-03-16T06:33:50.191Z,0.20
2019-03-16T06:36:18.287Z,0.35
2019-03-16T06:38:46.310Z,0.30
2019-03-16T06:41:14.323Z,0.30
2019-03-16T06:43:42.370Z,0.20
2019-03-16T06:46:10.379Z,1.12
2019-03-16T06:48:38.395Z,0.15
2019-03-16T06:51:06.399Z,0.30
2019-03-16T06:53:34.431Z,1.05
2019-03-16T06:56:02.448Z,0.20
2019-03-16T06:58:30.478Z,0.30
2019-03-16T07:00:58.485Z,0.82
2019-03-16T07:03:26.699Z,0.65
2019-03-16T07:05:54.706Z,0.65
2019-03-16T07:08:22.745Z,2.33
2019-03-16T07:10:50.756Z,0.40
2019-03-16T07:13:18.844Z,1.17
2019-03-16T07:15:46.880Z,0.17
2019-03-16T07:18:14.903Z,0.75
2019-03-16T07:20:42.975Z,0.50
2019-03-16T07:23:11.049Z,0.30
2019-03-16T07:25:39.118Z,0.53
2019-03-16T07:28:07.123Z,0.65
2019-03-16T07:30:37.237Z,1.85
2019-03-16T07:33:05.033Z,2.22
2019-03-16T07:35:33.050Z,0.40
2019-03-16T07:38:01.165Z,1.45
2019-03-16T07:40:29.205Z,0.72
2019-03-16T07:42:57.306Z,0.45
2019-03-16T07:45:25.337Z,0.60
2019-03-16T07:47:53.458Z,0.30
2019-03-16T07:50:21.493Z,0.33
2019-03-16T07:52:49.586Z,0.93
2019-03-16T07:55:17.620Z,1.85
2019-03-16T07:57:45.727Z,1.15
2019-03-16T08:00:13.747Z,0.62
2019-03-16T08:02:41.751Z,1.20
2019-03-16T08:05:18.195Z,1.65
2019-03-16T08:07:39.659Z,0.55
2019-03-16T08:10:10.592Z,0.80
2019-03-16T08:12:38.603Z,1.17
2019-03-16T08:15:07.720Z,0.47
2019-03-16T08:17:35.750Z,1.30
2019-03-16T08:20:04.636Z,1.72
2019-03-16T08:22:32.686Z,1.00
2019-03-16T08:25:00.744Z,0.57
2019-03-16T08:27:28.807Z,0.78
2019-03-16T08:29:56.808Z,1.55
2019-03-16T08:32:25.499Z,0.57
2019-03-16T08:34:53.738Z,1.20
2019-03-16T08:37:21.775Z,0.57
2019-03-16T08:39:49.822Z,0.80
2019-03-16T08:42:17.877Z,0.85
2019-03-16T08:44:45.891Z,2.15
2019-03-16T08:47:13.929Z,1.65
2019-03-16T08:49:41.972Z,4.30
2019-03-16T08:52:10.002Z,6.78
2019-03-16T08:54:38.115Z,5.92
2019-03-16T08:57:06.171Z,8.33
2019-03-16T08:59:34.285Z,7.40
2019-03-16T09:02:02.519Z,3.85
2019-03-16T09:04:30.627Z,4.17
2019-03-16T09:06:58.643Z,3.55
2019-03-16T09:09:26.700Z,2.15
2019-03-16T09:11:54.720Z,3.83
2019-03-16T09:14:22.752Z,2.15
2019-03-16T09:16:50.756Z,3.67
2019-03-16T09:19:18.983Z,1.77
2019-03-16T09:21:48.753Z,3.98
2019-03-16T09:24:17.161Z,8.40
2019-03-16T09:26:45.180Z,9.85
2019-03-16T09:29:15.295Z,10.32
2019-03-16T09:31:43.045Z,14.87
2019-03-16T09:34:11.095Z,15.65
2019-03-16T09:36:39.114Z,14.18
2019-03-16T09:39:07.210Z,18.92
2019-03-16T09:41:35.227Z,12.55
2019-03-16T09:44:03.536Z,12.23
2019-03-16T09:46:31.588Z,12.25
2019-03-16T09:48:59.694Z,12.07
2019-03-16T09:51:27.722Z,13.30
2019-03-16T09:53:55.780Z,12.05
2019-03-16T09:56:23.848Z,11.05
2019-03-16T09:58:51.847Z,10.48
2019-03-16T10:01:19.879Z,8.85
2019-03-16T10:03:47.915Z,10.18
2019-03-16T10:06:16.012Z,8.70
2019-03-16T10:08:44.116Z,10.75
2019-03-16T10:11:12.150Z,11.33
2019-03-16T10:13:40.175Z,8.45
2019-03-16T10:16:08.214Z,10.75
2019-03-16T10:18:36.281Z,9.98
2019-03-16T10:21:04.308Z,9.10
2019-03-16T10:23:32.338Z,7.22
2019-03-16T10:26:00.378Z,9.08
2019-03-16T10:28:28.403Z,10.48
2019-03-16T10:30:56.415Z,7.20
2019-03-16T10:33:24.451Z,9.43
2019-03-16T10:35:52.464Z,7.85
2019-03-16T10:38:20.515Z,8.88
2019-03-16T10:40:48.601Z,7.92
2019-03-16T10:43:16.709Z,6.55
2019-03-16T10:45:44.749Z,7.25
2019-03-16T10:48:12.856Z,6.65
2019-03-16T10:50:40.870Z,9.43
2019-03-16T10:53:08.900Z,7.65
2019-03-16T10:55:36.941Z,8.10
2019-03-16T10:58:05.138Z,7.15
2019-03-16T11:00:33.285Z,7.97
2019-03-16T11:03:01.336Z,8.98
2019-03-16T11:05:29.345Z,7.47
2019-03-16T11:07:57.455Z,6.28
2019-03-16T11:10:25.552Z,5.55
2019-03-16T11:12:53.609Z,7.67
2019-03-16T11:15:21.689Z,6.75
2019-03-16T11:17:49.791Z,5.42
2019-03-16T11:20:18.638Z,6.75
2019-03-16T11:22:46.775Z,6.58
2019-03-16T11:25:15.014Z,6.75
2019-03-16T11:27:43.024Z,5.80
2019-03-16T11:30:12.029Z,5.97
2019-03-16T11:32:40.048Z,5.33
2019-03-16T11:35:09.307Z,7.50
2019-03-16T11:37:37.320Z,6.50
2019-03-16T11:40:07.022Z,8.83
2019-03-16T11:42:35.028Z,9.98
2019-03-16T11:45:03.955Z,4.22
2019-03-16T11:47:31.987Z,7.50
2019-03-16T11:50:00.024Z,7.40
2019-03-16T11:52:28.051Z,9.10
2019-03-16T11:54:56.095Z,7.22
2019-03-16T11:57:24.107Z,8.13
2019-03-16T11:59:52.155Z,8.05
2019-03-16T12:02:20.249Z,7.40
2019-03-16T12:04:48.318Z,10.20
2019-03-16T12:07:16.381Z,6.62
2019-03-16T12:09:44.422Z,9.15
2019-03-16T12:12:12.437Z,8.53
2019-03-16T12:14:40.463Z,9.03
2019-03-16T12:17:08.479Z,6.35
2019-03-16T12:19:36.516Z,9.15
2019-03-16T12:22:05.970Z,5.75
2019-03-16T12:24:34.009Z,6.12
2019-03-16T12:27:02.027Z,7.15
2019-03-16T12:29:34.188Z,8.18
2019-03-16T12:31:59.913Z,7.00
2019-03-16T12:34:27.971Z,7.95
2019-03-16T12:36:56.034Z,6.45
2019-03-16T12:39:24.044Z,6.05
2019-03-16T12:41:52.170Z,5.60
2019-03-16T12:44:20.354Z,6.87
2019-03-16T12:46:48.406Z,7.87
2019-03-16T12:49:16.491Z,13.15
2019-03-16T12:51:44.510Z,16.23
2019-03-16T12:54:12.630Z,26.33
2019-03-16T12:56:40.739Z,36.23
2019-03-16T12:59:10.838Z,36.73
2019-03-16T13:01:38.556Z,41.50
2019-03-16T13:04:06.590Z,33.20
2019-03-16T13:06:34.640Z,36.13
2019-03-16T13:09:02.733Z,32.40
2019-03-16T13:11:30.851Z,31.12
2019-03-16T13:13:58.888Z,33.92
2019-03-16T13:16:27.023Z,29.18
2019-03-16T13:18:55.060Z,35.63
2019-03-16T13:21:23.097Z,31.68
2019-03-16T13:23:51.239Z,35.17
2019-03-16T13:26:19.330Z,33.37
2019-03-16T13:28:47.369Z,32.45
2019-03-16T13:31:15.387Z,28.70
2019-03-16T13:33:43.425Z,31.15
2019-03-16T13:36:11.461Z,36.83
2019-03-16T13:38:39.507Z,32.00
2019-03-16T13:41:07.555Z,32.95
2019-03-16T13:43:35.592Z,33.98
2019-03-16T13:46:03.615Z,28.27
2019-03-16T13:48:31.771Z,32.67
2019-03-16T13:50:59.842Z,32.50
2019-03-16T13:53:27.892Z,34.53
2019-03-16T13:55:56.306Z,29.20
2019-03-16T13:58:24.342Z,29.15
2019-03-16T14:00:52.364Z,28.30
2019-03-16T14:03:20.525Z,31.27
2019-03-16T14:05:48.542Z,32.53
2019-03-16T14:08:16.656Z,27.82
2019-03-16T14:10:44.709Z,27.17
2019-03-16T14:13:12.773Z,29.80
2019-03-16T14:15:40.811Z,24.43
2019-03-16T14:18:08.832Z,28.02
2019-03-16T14:20:36.864Z,33.90
2019-03-16T14:23:05.181Z,26.25
2019-03-16T14:25:33.565Z,26.10
2019-03-16T14:28:01.617Z,29.45
2019-03-16T14:30:41.054Z,24.85
2019-03-16T14:32:59.484Z,25.92
2019-03-16T14:35:27.579Z,28.80
2019-03-16T14:37:55.592Z,25.08
2019-03-16T14:40:24.050Z,27.13
2019-03-16T14:42:52.135Z,23.70
2019-03-16T14:45:20.464Z,25.02
2019-03-16T14:47:48.479Z,23.55
2019-03-16T14:50:19.864Z,23.87
2019-03-16T14:52:47.891Z,22.67
2019-03-16T14:55:16.014Z,23.67
2019-03-16T14:57:44.032Z,20.48
2019-03-16T15:00:15.655Z,22.42
2019-03-16T15:02:46.282Z,25.32
2019-03-16T15:05:13.490Z,21.27
2019-03-16T15:07:41.515Z,21.07
2019-03-16T15:10:11.177Z,19.35
2019-03-16T15:12:39.205Z,21.95
2019-03-16T15:15:20.128Z,21.60
2019-03-16T15:17:48.175Z,18.67
2019-03-16T15:20:16.217Z,24.20
2019-03-16T15:22:44.247Z,21.73
2019-03-16T15:25:12.731Z,22.52
2019-03-16T15:27:40.772Z,20.10
2019-03-16T15:30:12.711Z,20.35
2019-03-16T15:32:40.759Z,19.12
2019-03-16T15:35:09.160Z,22.20
2019-03-16T15:37:37.199Z,17.65
2019-03-16T15:40:09.060Z,16.97
2019-03-16T15:42:37.104Z,19.20
2019-03-16T15:45:06.757Z,17.17
2019-03-16T15:47:34.794Z,19.55
2019-03-16T15:50:02.827Z,20.88
2019-03-16T15:52:30.855Z,18.60
2019-03-16T15:54:58.876Z,17.65
2019-03-16T15:57:26.975Z,18.48
2019-03-16T15:59:54.989Z,19.23
2019-03-16T16:02:23.204Z,19.57
2019-03-16T16:04:51.217Z,18.75
2019-03-16T16:07:19.246Z,20.85
2019-03-16T16:09:47.260Z,18.30
2019-03-16T16:12:15.300Z,17.82
2019-03-16T16:14:43.329Z,19.50
2019-03-16T16:17:11.338Z,16.02
2019-03-16T16:19:39.374Z,18.60
2019-03-16T16:22:07.387Z,17.95
2019-03-16T16:24:35.425Z,17.02
2019-03-16T16:27:03.615Z,17.70
2019-03-16T16:29:31.647Z,15.20
2019-03-16T16:31:59.683Z,16.40
2019-03-16T16:34:27.715Z,19.27
2019-03-16T16:36:55.734Z,19.57
2019-03-16T16:39:23.780Z,14.83
2019-03-16T16:41:51.806Z,16.97
2019-03-16T16:44:19.856Z,17.05
2019-03-16T16:46:47.959Z,15.60
2019-03-16T16:49:16.036Z,17.00
2019-03-16T16:51:44.074Z,23.52
2019-03-16T16:54:12.117Z,21.35
2019-03-16T16:56:40.243Z,15.35
2019-03-16T16:59:08.267Z,12.20
2019-03-16T17:01:36.397Z,17.87
2019-03-16T17:04:04.439Z,19.57
2019-03-16T17:06:32.523Z,15.05
2019-03-16T17:09:00.544Z,12.88
2019-03-16T17:11:28.591Z,17.23
2019-03-16T17:13:56.600Z,20.00
2019-03-16T17:16:24.654Z,26.10
2019-03-16T17:18:52.666Z,18.10
2019-03-16T17:21:20.707Z,21.95
2019-03-16T17:23:48.793Z,21.55
2019-03-16T17:26:16.823Z,17.23
2019-03-16T17:28:44.856Z,14.50
2019-03-16T17:31:12.938Z,15.88
2019-03-16T17:33:40.947Z,16.30
2019-03-16T17:36:09.086Z,15.75
2019-03-16T17:38:37.163Z,15.83
2019-03-16T17:41:05.242Z,14.50
2019-03-16T17:43:33.299Z,14.30
2019-03-16T17:46:01.408Z,12.80
2019-03-16T17:48:29.877Z,14.03
2019-03-16T17:50:58.142Z,16.30
2019-03-16T17:53:26.179Z,14.55
2019-03-16T17:55:54.203Z,13.38
2019-03-16T17:58:22.272Z,17.20
2019-03-16T18:00:50.271Z,16.27
2019-03-16T18:03:18.327Z,13.38
2019-03-16T18:05:46.410Z,16.07
2019-03-16T18:08:14.526Z,10.65
2019-03-16T18:10:42.654Z,10.00
2019-03-16T18:13:11.235Z,5.67
2019-03-16T18:15:39.499Z,5.62
2019-03-16T18:18:07.538Z,4.55
2019-03-16T18:20:35.580Z,6.83
2019-03-16T18:23:03.622Z,6.37
2019-03-16T18:25:31.695Z,5.90
2019-03-16T18:27:59.771Z,8.53
2019-03-16T18:30:27.813Z,9.70
2019-03-16T18:32:55.869Z,7.25
2019-03-16T18:35:23.874Z,6.22
2019-03-16T18:37:51.925Z,9.78
2019-03-16T18:40:19.953Z,6.37
2019-03-16T18:42:47.999Z,4.55
2019-03-16T18:45:23.135Z,6.10
2019-03-16T18:47:51.153Z,7.08
2019-03-16T18:50:19.181Z,9.43
2019-03-16T18:52:47.280Z,9.63
2019-03-16T18:55:15.331Z,6.35
2019-03-16T18:57:43.362Z,5.47
2019-03-16T19:00:14.951Z,8.60
2019-03-16T19:02:42.987Z,4.47
2019-03-16T19:05:11.058Z,6.75
2019-03-16T19:07:39.085Z,7.28
2019-03-16T19:10:11.677Z,5.60
2019-03-16T19:12:39.687Z,5.87
2019-03-16T19:15:12.046Z,6.87
2019-03-16T19:17:40.455Z,6.12
2019-03-16T19:20:09.779Z,4.37
2019-03-16T19:22:37.786Z,6.53
2019-03-16T19:25:13.435Z,6.87
2019-03-16T19:27:41.439Z,5.55
2019-03-16T19:30:11.232Z,7.90
2019-03-16T19:32:39.269Z,6.22
2019-03-16T19:35:07.315Z,6.83
2019-03-16T19:37:35.347Z,5.00
2019-03-16T19:40:04.187Z,5.97
2019-03-16T19:42:32.210Z,5.75
2019-03-16T19:45:00.391Z,6.28
2019-03-16T19:47:28.571Z,7.58
2019-03-16T19:49:56.591Z,5.35
2019-03-16T19:52:24.643Z,7.80
2019-03-16T19:54:52.663Z,4.95
2019-03-16T19:57:20.691Z,6.22
2019-03-16T19:59:48.712Z,4.50
2019-03-16T20:02:16.743Z,6.15
2019-03-16T20:04:44.838Z,6.17
2019-03-16T20:07:19.323Z,4.67
2019-03-16T20:09:42.656Z,4.62
2019-03-16T20:12:10.704Z,5.50
2019-03-16T20:14:38.722Z,5.58
2019-03-16T20:17:06.787Z,10.43
2019-03-16T20:19:34.806Z,6.97
2019-03-16T20:22:02.843Z,4.05
2019-03-16T20:24:30.902Z,5.75
2019-03-16T20:26:58.955Z,5.85
2019-03-16T20:29:27.006Z,5.92
2019-03-16T20:31:55.104Z,3.52
2019-03-16T20:34:23.156Z,4.53
2019-03-16T20:36:51.159Z,3.58
2019-03-16T20:39:19.210Z,3.22
2019-03-16T20:41:47.239Z,3.52
2019-03-16T20:44:15.285Z,3.60
2019-03-16T20:46:43.324Z,3.92
2019-03-16T20:49:11.367Z,4.40
2019-03-16T20:51:39.375Z,4.78
2019-03-16T20:54:07.478Z,3.98
2019-03-16T20:56:35.606Z,5.30
2019-03-16T20:59:03.655Z,6.58
2019-03-16T21:01:31.702Z,4.30
2019-03-16T21:03:59.795Z,4.08
2019-03-16T21:06:27.904Z,4.37
2019-03-16T21:09:03.088Z,3.98
2019-03-16T21:11:25.719Z,2.87
2019-03-16T21:13:53.799Z,3.42
2019-03-16T21:16:21.847Z,4.62
2019-03-16T21:18:49.956Z,3.40
2019-03-16T21:21:18.170Z,5.87
2019-03-16T21:23:46.280Z,3.25
2019-03-16T21:26:14.330Z,3.12
2019-03-16T21:28:42.351Z,3.17
2019-03-16T21:31:10.490Z,3.92
2019-03-16T21:33:38.504Z,4.62
2019-03-16T21:36:06.550Z,3.50
2019-03-16T21:38:34.577Z,3.05
2019-03-16T21:41:02.625Z,3.27
2019-03-16T21:43:30.645Z,2.58
2019-03-16T21:45:58.769Z,3.65
2019-03-16T21:48:26.794Z,3.00
2019-03-16T21:50:54.831Z,3.50
2019-03-16T21:53:22.848Z,5.05
2019-03-16T21:55:50.932Z,3.65
2019-03-16T21:58:18.958Z,4.42
2019-03-16T22:00:46.998Z,3.50
2019-03-16T22:03:15.028Z,3.62
2019-03-16T22:05:43.054Z,3.77
2019-03-16T22:08:11.448Z,3.25
2019-03-16T22:10:39.452Z,3.40
2019-03-16T22:13:07.518Z,4.20
2019-03-16T22:15:35.538Z,2.65
2019-03-16T22:18:03.580Z,4.10
2019-03-16T22:20:31.624Z,2.83
2019-03-16T22:22:59.664Z,2.62
2019-03-16T22:25:27.674Z,2.67
2019-03-16T22:27:55.963Z,3.95
2019-03-16T22:30:23.993Z,4.03
2019-03-16T22:32:52.023Z,2.47
2019-03-16T22:35:20.041Z,3.08
2019-03-16T22:37:48.233Z,2.70
2019-03-16T22:40:16.272Z,3.00
2019-03-16T22:42:44.370Z,3.12
2019-03-16T22:45:12.903Z,3.72
2019-03-16T22:47:41.036Z,2.33
2019-03-16T22:50:13.663Z,4.53
2019-03-16T22:52:41.687Z,2.47
2019-03-16T22:55:09.725Z,2.62
2019-03-16T22:57:37.726Z,2.45
2019-03-16T23:00:10.431Z,3.77
2019-03-16T23:02:38.453Z,4.20
2019-03-16T23:05:07.647Z,2.72
2019-03-16T23:07:35.660Z,3.92
2019-03-16T23:10:05.536Z,3.22
2019-03-16T23:12:33.542Z,3.12
2019-03-16T23:15:01.579Z,2.67
2019-03-16T23:17:29.662Z,3.17
2019-03-16T23:19:57.695Z,2.50
2019-03-16T23:22:25.770Z,2.62
2019-03-16T23:24:53.892Z,2.95
2019-03-16T23:27:21.904Z,2.08
2019-03-16T23:29:49.943Z,2.02
2019-03-16T23:32:17.973Z,4.45
2019-03-16T23:34:46.057Z,2.33
2019-03-16T23:37:14.067Z,2.87
2019-03-16T23:39:42.077Z,3.47
2019-03-16T23:42:10.135Z,3.50
2019-03-16T23:44:38.164Z,3.02
2019-03-16T23:47:06.179Z,2.72
2019-03-16T23:49:34.228Z,3.05
2019-03-16T23:52:02.315Z,2.65
2019-03-16T23:54:30.355Z,2.08
2019-03-16T23:56:58.400Z,2.60
2019-03-16T23:59:26.440Z,3.10
